sensor_id;sensor_type;location;lat;lon;timestamp;P1;durP1;ratioP1;P2;durP2;ratioP2
44214;SDS011;29884;47.450;19.124;2022-12-07T00:01:47;15.68;;;10.15;;
44214;SDS011;29884;47.450;19.124;2022-12-07T00:04:13;17.50;;;10.77;;
44214;SDS011;29884;47.450;19.124;2022-12-07T00:06:41;15.55;;;10.50;;
44214;SDS011;29884;47.450;19.124;2022-12-07T00:09:12;21.55;;;10.65;;
44214;SDS011;29884;47.450;19.124;2022-12-07T00:11:39;17.80;;;10.73;;
44214;SDS011;29884;47.450;19.124;2022-12-07T00:14:06;18.40;;;11.32;;
44214;SDS011;29884;47.450;19.124;2022-12-07T00:16:35;17.95;;;11.35;;
44214;SDS011;29884;47.450;19.124;2022-12-07T00:19:02;14.55;;;10.20;;
44214;SDS011;29884;47.450;19.124;2022-12-07T00:21:29;17.63;;;10.57;;
44214;SDS011;29884;47.450;19.124;2022-12-07T00:23:57;16.50;;;10.65;;
44214;SDS011;29884;47.450;19.124;2022-12-07T00:26:24;17.92;;;9.93;;
44214;SDS011;29884;47.450;19.124;2022-12-07T00:28:53;17.70;;;11.20;;
44214;SDS011;29884;47.450;19.124;2022-12-07T00:31:22;19.55;;;10.45;;
44214;SDS011;29884;47.450;19.124;2022-12-07T00:33:50;17.67;;;10.23;;
44214;SDS011;29884;47.450;19.124;2022-12-07T00:36:17;18.48;;;10.73;;
44214;SDS011;29884;47.450;19.124;2022-12-07T00:38:45;18.23;;;10.90;;
44214;SDS011;29884;47.450;19.124;2022-12-07T00:41:13;15.60;;;10.13;;
44214;SDS011;29884;47.450;19.124;2022-12-07T00:43:44;16.00;;;10.60;;
44214;SDS011;29884;47.450;19.124;2022-12-07T00:46:10;18.00;;;11.45;;
44214;SDS011;29884;47.450;19.124;2022-12-07T00:48:37;15.57;;;10.50;;
44214;SDS011;29884;47.450;19.124;2022-12-07T00:51:03;19.80;;;11.80;;
44214;SDS011;29884;47.450;19.124;2022-12-07T00:53:29;18.33;;;12.02;;
44214;SDS011;29884;47.450;19.124;2022-12-07T00:55:55;20.50;;;12.48;;
44214;SDS011;29884;47.450;19.124;2022-12-07T00:58:22;21.10;;;12.00;;
44214;SDS011;29884;47.450;19.124;2022-12-07T01:00:48;22.45;;;13.20;;
44214;SDS011;29884;47.450;19.124;2022-12-07T01:03:14;21.17;;;12.90;;
44214;SDS011;29884;47.450;19.124;2022-12-07T01:05:48;20.70;;;13.02;;
44214;SDS011;29884;47.450;19.124;2022-12-07T01:08:16;22.95;;;13.68;;
44214;SDS011;29884;47.450;19.124;2022-12-07T01:10:41;23.33;;;13.57;;
44214;SDS011;29884;47.450;19.124;2022-12-07T01:13:07;20.13;;;13.32;;
44214;SDS011;29884;47.450;19.124;2022-12-07T01:15:33;23.35;;;13.25;;
44214;SDS011;29884;47.450;19.124;2022-12-07T01:17:58;23.15;;;13.82;;
44214;SDS011;29884;47.450;19.124;2022-12-07T01:20:24;24.15;;;13.75;;
44214;SDS011;29884;47.450;19.124;2022-12-07T01:22:50;26.55;;;14.45;;
44214;SDS011;29884;47.450;19.124;2022-12-07T01:25:16;25.98;;;14.75;;
44214;SDS011;29884;47.450;19.124;2022-12-07T01:27:41;23.65;;;13.77;;
44214;SDS011;29884;47.450;19.124;2022-12-07T01:30:07;24.23;;;14.32;;
44214;SDS011;29884;47.450;19.124;2022-12-07T01:32:35;27.38;;;15.10;;
44214;SDS011;29884;47.450;19.124;2022-12-07T01:35:00;26.45;;;13.65;;
44214;SDS011;29884;47.450;19.124;2022-12-07T01:37:26;24.05;;;13.98;;
44214;SDS011;29884;47.450;19.124;2022-12-07T01:39:52;24.17;;;14.20;;
44214;SDS011;29884;47.450;19.124;2022-12-07T01:42:18;24.25;;;14.05;;
44214;SDS011;29884;47.450;19.124;2022-12-07T01:47:51;20.80;;;13.60;;
44214;SDS011;29884;47.450;19.124;2022-12-07T01:50:20;20.58;;;12.93;;
44214;SDS011;29884;47.450;19.124;2022-12-07T01:52:49;24.35;;;14.07;;
44214;SDS011;29884;47.450;19.124;2022-12-07T01:55:17;22.90;;;14.05;;
44214;SDS011;29884;47.450;19.124;2022-12-07T01:57:45;21.83;;;13.18;;
44214;SDS011;29884;47.450;19.124;2022-12-07T02:00:13;22.05;;;13.65;;
44214;SDS011;29884;47.450;19.124;2022-12-07T02:05:08;22.42;;;13.80;;
44214;SDS011;29884;47.450;19.124;2022-12-07T02:07:35;23.98;;;14.15;;
44214;SDS011;29884;47.450;19.124;2022-12-07T02:10:16;22.42;;;13.70;;
44214;SDS011;29884;47.450;19.124;2022-12-07T02:12:44;22.13;;;13.35;;
44214;SDS011;29884;47.450;19.124;2022-12-07T02:15:19;24.10;;;13.77;;
44214;SDS011;29884;47.450;19.124;2022-12-07T02:26:05;22.77;;;13.05;;
44214;SDS011;29884;47.450;19.124;2022-12-07T02:28:58;24.67;;;12.93;;
44214;SDS011;29884;47.450;19.124;2022-12-07T02:31:51;21.70;;;13.05;;
44214;SDS011;29884;47.450;19.124;2022-12-07T02:42:43;22.02;;;12.10;;
44214;SDS011;29884;47.450;19.124;2022-12-07T02:45:12;20.88;;;12.98;;
44214;SDS011;29884;47.450;19.124;2022-12-07T02:47:40;21.20;;;12.75;;
44214;SDS011;29884;47.450;19.124;2022-12-07T02:50:06;18.63;;;12.82;;
44214;SDS011;29884;47.450;19.124;2022-12-07T02:52:32;21.80;;;14.02;;
44214;SDS011;29884;47.450;19.124;2022-12-07T02:54:58;22.70;;;14.10;;
44214;SDS011;29884;47.450;19.124;2022-12-07T02:57:35;23.83;;;13.88;;
44214;SDS011;29884;47.450;19.124;2022-12-07T03:00:23;20.05;;;13.07;;
44214;SDS011;29884;47.450;19.124;2022-12-07T03:02:51;21.58;;;13.35;;
44214;SDS011;29884;47.450;19.124;2022-12-07T03:10:57;20.25;;;12.68;;
44214;SDS011;29884;47.450;19.124;2022-12-07T03:16:05;18.63;;;13.07;;
44214;SDS011;29884;47.450;19.124;2022-12-07T03:18:37;21.30;;;13.05;;
44214;SDS011;29884;47.450;19.124;2022-12-07T03:21:09;19.17;;;13.02;;
44214;SDS011;29884;47.450;19.124;2022-12-07T03:23:44;21.23;;;13.00;;
44214;SDS011;29884;47.450;19.124;2022-12-07T03:26:15;21.05;;;13.18;;
44214;SDS011;29884;47.450;19.124;2022-12-07T03:28:46;21.52;;;13.55;;
44214;SDS011;29884;47.450;19.124;2022-12-07T03:31:21;19.30;;;11.80;;
44214;SDS011;29884;47.450;19.124;2022-12-07T03:34:05;18.52;;;12.50;;
44214;SDS011;29884;47.450;19.124;2022-12-07T03:36:44;21.05;;;12.45;;
44214;SDS011;29884;47.450;19.124;2022-12-07T03:39:41;17.83;;;12.05;;
44214;SDS011;29884;47.450;19.124;2022-12-07T03:42:14;18.50;;;11.80;;
44214;SDS011;29884;47.450;19.124;2022-12-07T03:44:40;19.50;;;12.18;;
44214;SDS011;29884;47.450;19.124;2022-12-07T03:47:17;18.38;;;11.68;;
44214;SDS011;29884;47.450;19.124;2022-12-07T03:52:40;18.42;;;11.98;;
44214;SDS011;29884;47.450;19.124;2022-12-07T03:55:18;21.15;;;13.18;;
44214;SDS011;29884;47.450;19.124;2022-12-07T03:57:50;21.27;;;13.45;;
44214;SDS011;29884;47.450;19.124;2022-12-07T04:00:19;20.00;;;12.07;;
44214;SDS011;29884;47.450;19.124;2022-12-07T04:02:44;18.45;;;12.20;;
44214;SDS011;29884;47.450;19.124;2022-12-07T04:05:10;18.25;;;12.00;;
44214;SDS011;29884;47.450;19.124;2022-12-07T04:07:36;19.00;;;12.27;;
44214;SDS011;29884;47.450;19.124;2022-12-07T04:10:02;18.33;;;13.05;;
44214;SDS011;29884;47.450;19.124;2022-12-07T04:12:29;20.13;;;13.15;;
44214;SDS011;29884;47.450;19.124;2022-12-07T04:14:54;18.77;;;12.48;;
44214;SDS011;29884;47.450;19.124;2022-12-07T04:17:20;20.40;;;12.80;;
44214;SDS011;29884;47.450;19.124;2022-12-07T04:19:46;19.02;;;12.30;;
44214;SDS011;29884;47.450;19.124;2022-12-07T04:22:12;19.05;;;12.63;;
44214;SDS011;29884;47.450;19.124;2022-12-07T04:24:38;20.95;;;11.98;;
44214;SDS011;29884;47.450;19.124;2022-12-07T04:27:04;19.65;;;12.23;;
44214;SDS011;29884;47.450;19.124;2022-12-07T04:29:29;20.90;;;13.07;;
44214;SDS011;29884;47.450;19.124;2022-12-07T04:31:55;20.63;;;12.70;;
44214;SDS011;29884;47.450;19.124;2022-12-07T04:34:21;20.25;;;12.77;;
44214;SDS011;29884;47.450;19.124;2022-12-07T04:36:47;20.23;;;12.18;;
44214;SDS011;29884;47.450;19.124;2022-12-07T04:39:27;17.73;;;12.15;;
44214;SDS011;29884;47.450;19.124;2022-12-07T04:41:54;18.65;;;12.48;;
44214;SDS011;29884;47.450;19.124;2022-12-07T04:44:21;19.02;;;12.95;;
44214;SDS011;29884;47.450;19.124;2022-12-07T04:46:48;22.92;;;12.70;;
44214;SDS011;29884;47.450;19.124;2022-12-07T04:49:15;25.42;;;12.52;;
44214;SDS011;29884;47.450;19.124;2022-12-07T04:51:41;22.55;;;13.40;;
44214;SDS011;29884;47.450;19.124;2022-12-07T04:54:08;20.65;;;12.40;;
44214;SDS011;29884;47.450;19.124;2022-12-07T04:56:34;19.77;;;12.63;;
44214;SDS011;29884;47.450;19.124;2022-12-07T04:59:00;20.50;;;13.52;;
44214;SDS011;29884;47.450;19.124;2022-12-07T05:01:27;20.83;;;13.65;;
44214;SDS011;29884;47.450;19.124;2022-12-07T05:03:53;23.17;;;14.48;;
44214;SDS011;29884;47.450;19.124;2022-12-07T05:06:18;20.77;;;12.52;;
44214;SDS011;29884;47.450;19.124;2022-12-07T05:08:44;20.70;;;12.50;;
44214;SDS011;29884;47.450;19.124;2022-12-07T05:11:10;24.67;;;13.30;;
44214;SDS011;29884;47.450;19.124;2022-12-07T05:13:55;19.80;;;12.20;;
44214;SDS011;29884;47.450;19.124;2022-12-07T05:16:21;20.35;;;12.38;;
44214;SDS011;29884;47.450;19.124;2022-12-07T05:18:47;19.58;;;12.55;;
44214;SDS011;29884;47.450;19.124;2022-12-07T05:21:12;21.75;;;14.57;;
44214;SDS011;29884;47.450;19.124;2022-12-07T05:23:38;20.00;;;13.90;;
44214;SDS011;29884;47.450;19.124;2022-12-07T05:26:04;22.35;;;12.57;;
44214;SDS011;29884;47.450;19.124;2022-12-07T05:28:29;19.58;;;11.90;;
44214;SDS011;29884;47.450;19.124;2022-12-07T05:30:55;21.40;;;13.00;;
44214;SDS011;29884;47.450;19.124;2022-12-07T05:33:21;20.08;;;13.00;;
44214;SDS011;29884;47.450;19.124;2022-12-07T05:35:46;21.85;;;13.48;;
44214;SDS011;29884;47.450;19.124;2022-12-07T05:38:12;21.85;;;14.40;;
44214;SDS011;29884;47.450;19.124;2022-12-07T05:40:38;21.20;;;12.95;;
44214;SDS011;29884;47.450;19.124;2022-12-07T05:43:03;22.13;;;13.95;;
44214;SDS011;29884;47.450;19.124;2022-12-07T05:45:29;22.48;;;13.38;;
44214;SDS011;29884;47.450;19.124;2022-12-07T05:47:55;19.48;;;12.52;;
44214;SDS011;29884;47.450;19.124;2022-12-07T05:50:20;21.98;;;12.73;;
44214;SDS011;29884;47.450;19.124;2022-12-07T05:52:46;21.33;;;13.25;;
44214;SDS011;29884;47.450;19.124;2022-12-07T05:55:11;21.25;;;14.00;;
44214;SDS011;29884;47.450;19.124;2022-12-07T05:57:38;20.75;;;13.80;;
44214;SDS011;29884;47.450;19.124;2022-12-07T06:00:03;24.02;;;13.88;;
44214;SDS011;29884;47.450;19.124;2022-12-07T06:02:30;21.40;;;13.80;;
44214;SDS011;29884;47.450;19.124;2022-12-07T06:04:55;22.67;;;14.95;;
44214;SDS011;29884;47.450;19.124;2022-12-07T06:07:21;25.40;;;14.50;;
44214;SDS011;29884;47.450;19.124;2022-12-07T06:09:47;20.95;;;14.52;;
44214;SDS011;29884;47.450;19.124;2022-12-07T06:12:13;25.27;;;15.40;;
44214;SDS011;29884;47.450;19.124;2022-12-07T06:14:58;24.05;;;16.73;;
44214;SDS011;29884;47.450;19.124;2022-12-07T06:17:24;23.40;;;16.33;;
44214;SDS011;29884;47.450;19.124;2022-12-07T06:19:50;22.70;;;14.75;;
44214;SDS011;29884;47.450;19.124;2022-12-07T06:22:16;23.95;;;14.65;;
44214;SDS011;29884;47.450;19.124;2022-12-07T06:24:42;21.83;;;14.32;;
44214;SDS011;29884;47.450;19.124;2022-12-07T06:27:08;24.88;;;15.23;;
44214;SDS011;29884;47.450;19.124;2022-12-07T06:29:35;26.42;;;15.27;;
44214;SDS011;29884;47.450;19.124;2022-12-07T06:32:01;25.73;;;15.60;;
44214;SDS011;29884;47.450;19.124;2022-12-07T06:34:28;28.13;;;16.27;;
44214;SDS011;29884;47.450;19.124;2022-12-07T06:36:53;26.15;;;16.88;;
44214;SDS011;29884;47.450;19.124;2022-12-07T06:39:26;29.02;;;17.95;;
44214;SDS011;29884;47.450;19.124;2022-12-07T06:41:53;32.70;;;18.02;;
44214;SDS011;29884;47.450;19.124;2022-12-07T06:44:19;27.92;;;16.95;;
44214;SDS011;29884;47.450;19.124;2022-12-07T06:46:46;28.02;;;16.73;;
44214;SDS011;29884;47.450;19.124;2022-12-07T06:49:12;26.30;;;17.27;;
44214;SDS011;29884;47.450;19.124;2022-12-07T06:51:38;29.20;;;17.00;;
44214;SDS011;29884;47.450;19.124;2022-12-07T06:54:09;28.70;;;17.38;;
44214;SDS011;29884;47.450;19.124;2022-12-07T06:56:35;27.88;;;17.95;;
44214;SDS011;29884;47.450;19.124;2022-12-07T06:59:01;26.90;;;16.35;;
44214;SDS011;29884;47.450;19.124;2022-12-07T07:01:28;27.85;;;16.98;;
44214;SDS011;29884;47.450;19.124;2022-12-07T07:03:53;29.33;;;18.17;;
44214;SDS011;29884;47.450;19.124;2022-12-07T07:06:19;31.40;;;19.38;;
44214;SDS011;29884;47.450;19.124;2022-12-07T07:08:44;28.60;;;19.23;;
44214;SDS011;29884;47.450;19.124;2022-12-07T07:11:10;31.63;;;20.08;;
44214;SDS011;29884;47.450;19.124;2022-12-07T07:13:36;27.88;;;18.70;;
44214;SDS011;29884;47.450;19.124;2022-12-07T07:16:02;28.30;;;19.15;;
44214;SDS011;29884;47.450;19.124;2022-12-07T07:18:28;26.25;;;17.30;;
44214;SDS011;29884;47.450;19.124;2022-12-07T07:20:54;30.90;;;18.15;;
44214;SDS011;29884;47.450;19.124;2022-12-07T07:23:20;34.30;;;18.33;;
44214;SDS011;29884;47.450;19.124;2022-12-07T07:25:46;29.17;;;18.08;;
44214;SDS011;29884;47.450;19.124;2022-12-07T07:28:16;29.95;;;18.42;;
44214;SDS011;29884;47.450;19.124;2022-12-07T07:30:41;31.25;;;19.00;;
44214;SDS011;29884;47.450;19.124;2022-12-07T07:33:07;31.23;;;17.90;;
44214;SDS011;29884;47.450;19.124;2022-12-07T07:35:34;29.35;;;18.25;;
44214;SDS011;29884;47.450;19.124;2022-12-07T07:38:00;29.25;;;18.30;;
44214;SDS011;29884;47.450;19.124;2022-12-07T07:40:26;30.83;;;18.55;;
44214;SDS011;29884;47.450;19.124;2022-12-07T07:42:54;29.90;;;18.83;;
44214;SDS011;29884;47.450;19.124;2022-12-07T07:45:20;31.58;;;19.73;;
44214;SDS011;29884;47.450;19.124;2022-12-07T07:47:47;26.67;;;19.02;;
44214;SDS011;29884;47.450;19.124;2022-12-07T07:50:13;28.27;;;18.92;;
44214;SDS011;29884;47.450;19.124;2022-12-07T07:52:39;25.27;;;17.75;;
44214;SDS011;29884;47.450;19.124;2022-12-07T07:55:05;33.45;;;18.92;;
44214;SDS011;29884;47.450;19.124;2022-12-07T07:57:33;29.75;;;19.33;;
44214;SDS011;29884;47.450;19.124;2022-12-07T08:00:03;27.77;;;18.42;;
44214;SDS011;29884;47.450;19.124;2022-12-07T08:02:30;31.45;;;19.38;;
44214;SDS011;29884;47.450;19.124;2022-12-07T08:04:56;30.48;;;19.38;;
44214;SDS011;29884;47.450;19.124;2022-12-07T08:07:22;29.08;;;18.98;;
44214;SDS011;29884;47.450;19.124;2022-12-07T08:09:47;27.23;;;18.70;;
44214;SDS011;29884;47.450;19.124;2022-12-07T08:12:13;31.02;;;18.67;;
44214;SDS011;29884;47.450;19.124;2022-12-07T08:14:39;27.33;;;18.17;;
44214;SDS011;29884;47.450;19.124;2022-12-07T08:17:04;27.90;;;18.33;;
44214;SDS011;29884;47.450;19.124;2022-12-07T08:19:30;28.38;;;18.60;;
44214;SDS011;29884;47.450;19.124;2022-12-07T08:21:56;27.50;;;18.33;;
44214;SDS011;29884;47.450;19.124;2022-12-07T08:24:22;28.58;;;18.55;;
44214;SDS011;29884;47.450;19.124;2022-12-07T08:26:48;32.40;;;19.27;;
44214;SDS011;29884;47.450;19.124;2022-12-07T08:29:15;26.85;;;18.02;;
44214;SDS011;29884;47.450;19.124;2022-12-07T08:31:41;26.23;;;18.13;;
44214;SDS011;29884;47.450;19.124;2022-12-07T08:34:09;27.90;;;18.67;;
44214;SDS011;29884;47.450;19.124;2022-12-07T08:36:38;27.63;;;19.83;;
44214;SDS011;29884;47.450;19.124;2022-12-07T08:39:07;25.45;;;18.20;;
44214;SDS011;29884;47.450;19.124;2022-12-07T08:41:33;29.25;;;19.67;;
44214;SDS011;29884;47.450;19.124;2022-12-07T08:43:58;28.77;;;18.98;;
44214;SDS011;29884;47.450;19.124;2022-12-07T08:46:25;25.95;;;16.58;;
44214;SDS011;29884;47.450;19.124;2022-12-07T08:49:07;28.67;;;18.45;;
44214;SDS011;29884;47.450;19.124;2022-12-07T08:51:45;29.58;;;17.75;;
44214;SDS011;29884;47.450;19.124;2022-12-07T08:54:11;26.38;;;17.58;;
44214;SDS011;29884;47.450;19.124;2022-12-07T08:56:40;25.65;;;16.70;;
44214;SDS011;29884;47.450;19.124;2022-12-07T08:59:06;25.55;;;17.30;;
44214;SDS011;29884;47.450;19.124;2022-12-07T09:01:33;25.25;;;16.65;;
44214;SDS011;29884;47.450;19.124;2022-12-07T09:03:59;25.75;;;16.38;;
44214;SDS011;29884;47.450;19.124;2022-12-07T09:06:25;23.50;;;16.05;;
44214;SDS011;29884;47.450;19.124;2022-12-07T09:08:51;22.92;;;15.85;;
44214;SDS011;29884;47.450;19.124;2022-12-07T09:11:21;23.90;;;16.83;;
44214;SDS011;29884;47.450;19.124;2022-12-07T09:13:47;25.20;;;16.83;;
44214;SDS011;29884;47.450;19.124;2022-12-07T09:16:13;23.10;;;16.35;;
44214;SDS011;29884;47.450;19.124;2022-12-07T09:18:39;23.58;;;16.10;;
44214;SDS011;29884;47.450;19.124;2022-12-07T09:21:04;26.55;;;17.23;;
44214;SDS011;29884;47.450;19.124;2022-12-07T09:23:30;24.23;;;17.08;;
44214;SDS011;29884;47.450;19.124;2022-12-07T09:26:00;25.55;;;17.50;;
44214;SDS011;29884;47.450;19.124;2022-12-07T09:28:26;25.17;;;17.27;;
44214;SDS011;29884;47.450;19.124;2022-12-07T09:30:52;27.63;;;17.25;;
44214;SDS011;29884;47.450;19.124;2022-12-07T09:33:18;23.40;;;15.63;;
44214;SDS011;29884;47.450;19.124;2022-12-07T09:35:46;23.10;;;16.38;;
44214;SDS011;29884;47.450;19.124;2022-12-07T09:38:14;20.52;;;15.20;;
44214;SDS011;29884;47.450;19.124;2022-12-07T09:40:40;26.17;;;16.73;;
44214;SDS011;29884;47.450;19.124;2022-12-07T09:43:11;24.73;;;16.60;;
44214;SDS011;29884;47.450;19.124;2022-12-07T09:45:39;21.02;;;15.13;;
44214;SDS011;29884;47.450;19.124;2022-12-07T09:48:08;22.40;;;15.98;;
44214;SDS011;29884;47.450;19.124;2022-12-07T09:50:45;21.48;;;15.45;;
44214;SDS011;29884;47.450;19.124;2022-12-07T09:53:17;22.00;;;16.23;;
44214;SDS011;29884;47.450;19.124;2022-12-07T09:55:49;21.70;;;15.23;;
44214;SDS011;29884;47.450;19.124;2022-12-07T09:58:19;23.00;;;15.27;;
44214;SDS011;29884;47.450;19.124;2022-12-07T10:00:52;22.65;;;15.68;;
44214;SDS011;29884;47.450;19.124;2022-12-07T10:03:22;24.13;;;15.63;;
44214;SDS011;29884;47.450;19.124;2022-12-07T10:05:49;19.85;;;13.95;;
44214;SDS011;29884;47.450;19.124;2022-12-07T10:08:16;20.20;;;14.25;;
44214;SDS011;29884;47.450;19.124;2022-12-07T10:10:42;23.52;;;14.73;;
44214;SDS011;29884;47.450;19.124;2022-12-07T10:13:10;22.88;;;15.30;;
44214;SDS011;29884;47.450;19.124;2022-12-07T10:15:45;21.85;;;15.10;;
44214;SDS011;29884;47.450;19.124;2022-12-07T10:20:44;21.75;;;14.32;;
44214;SDS011;29884;47.450;19.124;2022-12-07T10:23:14;21.08;;;13.63;;
44214;SDS011;29884;47.450;19.124;2022-12-07T10:25:42;19.10;;;12.93;;
44214;SDS011;29884;47.450;19.124;2022-12-07T10:30:56;23.00;;;14.05;;
44214;SDS011;29884;47.450;19.124;2022-12-07T10:33:51;20.85;;;12.68;;
44214;SDS011;29884;47.450;19.124;2022-12-07T10:36:20;20.05;;;13.32;;
44214;SDS011;29884;47.450;19.124;2022-12-07T10:41:59;24.33;;;13.32;;
44214;SDS011;29884;47.450;19.124;2022-12-07T10:44:33;19.38;;;12.93;;
44214;SDS011;29884;47.450;19.124;2022-12-07T10:52:49;16.83;;;12.80;;
44214;SDS011;29884;47.450;19.124;2022-12-07T11:00:31;18.83;;;12.00;;
44214;SDS011;29884;47.450;19.124;2022-12-07T11:11:13;17.67;;;10.98;;
44214;SDS011;29884;47.450;19.124;2022-12-07T11:23:48;11.63;;;7.97;;
44214;SDS011;29884;47.450;19.124;2022-12-07T11:37:12;5.53;;;3.90;;
44214;SDS011;29884;47.450;19.124;2022-12-07T11:39:49;6.50;;;3.50;;
44214;SDS011;29884;47.450;19.124;2022-12-07T11:47:51;9.50;;;4.18;;
44214;SDS011;29884;47.450;19.124;2022-12-07T11:55:43;6.32;;;4.80;;
44214;SDS011;29884;47.450;19.124;2022-12-07T12:00:43;7.38;;;4.18;;
44214;SDS011;29884;47.450;19.124;2022-12-07T12:06:15;7.75;;;3.88;;
44214;SDS011;29884;47.450;19.124;2022-12-07T12:09:04;6.55;;;3.85;;
44214;SDS011;29884;47.450;19.124;2022-12-07T12:22:45;6.40;;;4.10;;
44214;SDS011;29884;47.450;19.124;2022-12-07T12:25:47;8.27;;;4.38;;
44214;SDS011;29884;47.450;19.124;2022-12-07T12:28:15;4.50;;;3.80;;
44214;SDS011;29884;47.450;19.124;2022-12-07T12:33:59;9.55;;;4.22;;
44214;SDS011;29884;47.450;19.124;2022-12-07T12:36:27;6.15;;;4.30;;
44214;SDS011;29884;47.450;19.124;2022-12-07T12:39:13;5.15;;;3.85;;
44214;SDS011;29884;47.450;19.124;2022-12-07T12:54:28;5.60;;;4.20;;
44214;SDS011;29884;47.450;19.124;2022-12-07T12:57:15;8.68;;;4.43;;
44214;SDS011;29884;47.450;19.124;2022-12-07T13:02:25;5.97;;;3.70;;
44214;SDS011;29884;47.450;19.124;2022-12-07T13:04:58;6.50;;;3.60;;
44214;SDS011;29884;47.450;19.124;2022-12-07T13:12:59;5.78;;;3.45;;
44214;SDS011;29884;47.450;19.124;2022-12-07T13:20:57;7.25;;;4.10;;
44214;SDS011;29884;47.450;19.124;2022-12-07T13:37:14;5.60;;;3.72;;
44214;SDS011;29884;47.450;19.124;2022-12-07T13:44:59;7.05;;;3.90;;
44214;SDS011;29884;47.450;19.124;2022-12-07T13:47:43;6.78;;;3.70;;
44214;SDS011;29884;47.450;19.124;2022-12-07T13:50:26;7.68;;;4.15;;
44214;SDS011;29884;47.450;19.124;2022-12-07T13:52:55;7.68;;;4.13;;
44214;SDS011;29884;47.450;19.124;2022-12-07T13:55:22;5.60;;;3.75;;
44214;SDS011;29884;47.450;19.124;2022-12-07T13:57:49;6.93;;;3.70;;
44214;SDS011;29884;47.450;19.124;2022-12-07T14:00:18;9.43;;;4.18;;
44214;SDS011;29884;47.450;19.124;2022-12-07T14:05:26;6.65;;;4.07;;
44214;SDS011;29884;47.450;19.124;2022-12-07T14:08:00;9.57;;;4.07;;
44214;SDS011;29884;47.450;19.124;2022-12-07T14:12:55;5.95;;;4.40;;
44214;SDS011;29884;47.450;19.124;2022-12-07T14:15:23;7.18;;;4.20;;
44214;SDS011;29884;47.450;19.124;2022-12-07T14:17:54;10.65;;;4.40;;
44214;SDS011;29884;47.450;19.124;2022-12-07T14:23:01;9.20;;;4.30;;
44214;SDS011;29884;47.450;19.124;2022-12-07T14:25:34;9.10;;;4.40;;
44214;SDS011;29884;47.450;19.124;2022-12-07T14:28:24;6.82;;;3.85;;
44214;SDS011;29884;47.450;19.124;2022-12-07T14:30:58;10.30;;;4.38;;
44214;SDS011;29884;47.450;19.124;2022-12-07T14:33:24;10.13;;;4.55;;
44214;SDS011;29884;47.450;19.124;2022-12-07T14:35:50;7.53;;;4.63;;
44214;SDS011;29884;47.450;19.124;2022-12-07T14:38:20;7.47;;;4.63;;
44214;SDS011;29884;47.450;19.124;2022-12-07T14:40:46;13.18;;;5.35;;
44214;SDS011;29884;47.450;19.124;2022-12-07T14:43:14;11.10;;;5.45;;
44214;SDS011;29884;47.450;19.124;2022-12-07T14:45:42;7.43;;;5.20;;
44214;SDS011;29884;47.450;19.124;2022-12-07T14:48:10;9.70;;;5.07;;
44214;SDS011;29884;47.450;19.124;2022-12-07T14:50:37;10.15;;;5.18;;
44214;SDS011;29884;47.450;19.124;2022-12-07T14:53:16;10.20;;;5.43;;
44214;SDS011;29884;47.450;19.124;2022-12-07T14:55:43;10.35;;;5.22;;
44214;SDS011;29884;47.450;19.124;2022-12-07T14:58:16;11.23;;;5.30;;
44214;SDS011;29884;47.450;19.124;2022-12-07T15:00:42;13.95;;;6.10;;
44214;SDS011;29884;47.450;19.124;2022-12-07T15:03:08;11.77;;;6.00;;
44214;SDS011;29884;47.450;19.124;2022-12-07T15:05:34;8.82;;;5.63;;
44214;SDS011;29884;47.450;19.124;2022-12-07T15:08:01;11.30;;;5.88;;
44214;SDS011;29884;47.450;19.124;2022-12-07T15:10:29;15.07;;;5.60;;
44214;SDS011;29884;47.450;19.124;2022-12-07T15:13:00;15.18;;;5.95;;
44214;SDS011;29884;47.450;19.124;2022-12-07T15:15:46;13.50;;;6.32;;
44214;SDS011;29884;47.450;19.124;2022-12-07T15:18:13;14.98;;;6.25;;
44214;SDS011;29884;47.450;19.124;2022-12-07T15:20:38;13.98;;;7.55;;
44214;SDS011;29884;47.450;19.124;2022-12-07T15:23:04;15.57;;;6.80;;
44214;SDS011;29884;47.450;19.124;2022-12-07T15:25:30;16.50;;;7.00;;
44214;SDS011;29884;47.450;19.124;2022-12-07T15:27:56;14.70;;;7.05;;
44214;SDS011;29884;47.450;19.124;2022-12-07T15:30:22;13.55;;;6.60;;
44214;SDS011;29884;47.450;19.124;2022-12-07T15:32:50;13.02;;;6.47;;
44214;SDS011;29884;47.450;19.124;2022-12-07T15:35:17;12.00;;;6.45;;
44214;SDS011;29884;47.450;19.124;2022-12-07T15:37:43;16.70;;;7.22;;
44214;SDS011;29884;47.450;19.124;2022-12-07T15:40:09;16.05;;;7.68;;
44214;SDS011;29884;47.450;19.124;2022-12-07T15:42:35;14.48;;;7.40;;
44214;SDS011;29884;47.450;19.124;2022-12-07T15:45:02;13.27;;;7.45;;
44214;SDS011;29884;47.450;19.124;2022-12-07T15:47:33;16.38;;;7.15;;
44214;SDS011;29884;47.450;19.124;2022-12-07T15:50:02;13.25;;;7.85;;
44214;SDS011;29884;47.450;19.124;2022-12-07T15:52:29;18.17;;;8.57;;
44214;SDS011;29884;47.450;19.124;2022-12-07T15:54:55;15.32;;;8.63;;
44214;SDS011;29884;47.450;19.124;2022-12-07T15:57:20;20.33;;;9.45;;
44214;SDS011;29884;47.450;19.124;2022-12-07T15:59:46;16.10;;;8.10;;
44214;SDS011;29884;47.450;19.124;2022-12-07T16:02:12;16.67;;;9.77;;
44214;SDS011;29884;47.450;19.124;2022-12-07T16:04:38;15.50;;;9.40;;
44214;SDS011;29884;47.450;19.124;2022-12-07T16:07:03;21.00;;;8.82;;
44214;SDS011;29884;47.450;19.124;2022-12-07T16:09:29;18.40;;;9.32;;
44214;SDS011;29884;47.450;19.124;2022-12-07T16:11:55;21.67;;;9.57;;
44214;SDS011;29884;47.450;19.124;2022-12-07T16:14:20;17.75;;;9.13;;
44214;SDS011;29884;47.450;19.124;2022-12-07T16:16:46;18.85;;;9.27;;
44214;SDS011;29884;47.450;19.124;2022-12-07T16:19:12;16.42;;;9.38;;
44214;SDS011;29884;47.450;19.124;2022-12-07T16:21:38;18.95;;;9.23;;
44214;SDS011;29884;47.450;19.124;2022-12-07T16:24:04;19.05;;;9.70;;
44214;SDS011;29884;47.450;19.124;2022-12-07T16:26:31;13.30;;;8.10;;
44214;SDS011;29884;47.450;19.124;2022-12-07T16:28:57;16.98;;;9.55;;
44214;SDS011;29884;47.450;19.124;2022-12-07T16:31:24;20.77;;;9.45;;
44214;SDS011;29884;47.450;19.124;2022-12-07T16:33:52;21.48;;;10.70;;
44214;SDS011;29884;47.450;19.124;2022-12-07T16:36:19;28.52;;;12.00;;
44214;SDS011;29884;47.450;19.124;2022-12-07T16:38:47;24.67;;;13.07;;
44214;SDS011;29884;47.450;19.124;2022-12-07T16:41:13;20.10;;;11.40;;
44214;SDS011;29884;47.450;19.124;2022-12-07T16:43:39;29.50;;;13.60;;
44214;SDS011;29884;47.450;19.124;2022-12-07T16:46:05;24.65;;;12.75;;
44214;SDS011;29884;47.450;19.124;2022-12-07T16:48:31;39.53;;;18.90;;
44214;SDS011;29884;47.450;19.124;2022-12-07T16:51:07;43.72;;;21.75;;
44214;SDS011;29884;47.450;19.124;2022-12-07T16:53:35;45.05;;;21.40;;
44214;SDS011;29884;47.450;19.124;2022-12-07T16:56:01;55.35;;;27.55;;
44214;SDS011;29884;47.450;19.124;2022-12-07T16:58:27;41.03;;;21.75;;
44214;SDS011;29884;47.450;19.124;2022-12-07T17:00:54;35.17;;;17.85;;
44214;SDS011;29884;47.450;19.124;2022-12-07T17:03:20;23.00;;;14.13;;
44214;SDS011;29884;47.450;19.124;2022-12-07T17:05:46;28.02;;;15.35;;
44214;SDS011;29884;47.450;19.124;2022-12-07T17:08:13;27.55;;;14.77;;